createdAt,value
2019-04-05T00:00:09.498Z,85.79
2019-04-05T00:05:16.855Z,85.27
2019-04-05T00:10:22.186Z,87.47
2019-04-05T00:15:27.863Z,86.94
2019-04-05T00:20:33.207Z,86.57
2019-04-05T00:25:39.079Z,87.36
2019-04-05T00:30:44.837Z,86.06
2019-04-05T00:35:50.179Z,85.96
2019-04-05T00:40:55.409Z,85.29
2019-04-05T00:46:00.814Z,85.45
2019-04-05T00:51:06.147Z,85.55
2019-04-05T00:56:11.511Z,85.84
2019-04-05T01:01:17.310Z,86.12
2019-04-05T01:06:23.857Z,85.96
2019-04-05T01:11:29.130Z,85.95
2019-04-05T01:16:35.135Z,86.72
2019-04-05T01:21:42.139Z,87.31
2019-04-05T01:26:49.548Z,87.36
2019-04-05T01:31:55.257Z,88.33
2019-04-05T01:37:01.380Z,88.29
2019-04-05T01:42:07.227Z,87.27
2019-04-05T01:47:12.813Z,86.99
2019-04-05T01:52:18.134Z,87.23
2019-04-05T01:57:23.439Z,88.18
2019-04-05T02:02:29.236Z,88.44
2019-04-05T02:07:34.528Z,88.07
2019-04-05T02:12:41.768Z,86.75
2019-04-05T02:17:47.260Z,85.94
2019-04-05T02:22:52.821Z,86.19
2019-04-05T02:27:59.014Z,87.29
2019-04-05T02:33:04.598Z,87.82
2019-04-05T02:38:09.941Z,86.27
2019-04-05T02:43:18.078Z,85.77
2019-04-05T02:48:24.312Z,85.81
2019-04-05T02:53:31.762Z,85.58
2019-04-05T02:58:38.839Z,87.21
2019-04-05T03:03:44.305Z,87.43
2019-04-05T03:08:50.083Z,87.40
2019-04-05T03:13:57.614Z,87.59
2019-04-05T03:19:10.331Z,86.04
2019-04-05T03:24:19.119Z,85.27
2019-04-05T03:29:25.172Z,85.83
2019-04-05T03:34:30.540Z,86.46
2019-04-05T03:39:35.963Z,87.53
2019-04-05T03:44:42.608Z,87.64
2019-04-05T03:49:48.417Z,87.87
2019-04-05T03:54:54.219Z,87.92
2019-04-05T03:59:59.811Z,86.73
2019-04-05T04:05:05.669Z,85.70
2019-04-05T04:10:16.620Z,85.69
2019-04-05T04:15:22.032Z,86.20
2019-04-05T04:20:40.796Z,86.13
2019-04-05T04:25:46.401Z,86.41
2019-04-05T04:30:52.471Z,86.50
2019-04-05T04:35:57.836Z,86.50
2019-04-05T04:41:03.550Z,86.35
2019-04-05T04:46:09.541Z,86.26
2019-04-05T04:51:15.162Z,85.84
2019-04-05T04:56:20.799Z,85.81
2019-04-05T05:01:26.379Z,85.72
2019-04-05T05:06:31.779Z,86.54
2019-04-05T05:11:37.310Z,86.93
2019-04-05T05:16:43.198Z,86.80
2019-04-05T05:21:49.789Z,86.33
2019-04-05T05:26:55.293Z,86.30
2019-04-05T05:32:00.962Z,86.68
2019-04-05T05:37:06.504Z,86.69
2019-04-05T05:42:11.797Z,87.22
2019-04-05T05:47:17.032Z,86.29
2019-04-05T05:52:22.644Z,87.69
2019-04-05T05:57:27.938Z,88.09
2019-04-05T06:02:33.295Z,86.18
2019-04-05T06:07:39.096Z,85.78
2019-04-05T06:12:45.502Z,85.45
2019-04-05T06:18:03.823Z,85.09
2019-04-05T06:22:58.130Z,84.90
2019-04-05T06:28:03.350Z,84.83
2019-04-05T06:33:08.840Z,85.27
2019-04-05T06:38:14.538Z,85.33
2019-04-05T06:43:19.760Z,84.03
2019-04-05T06:48:25.082Z,85.29
2019-04-05T06:53:30.324Z,84.25
2019-04-05T06:58:35.832Z,85.15
2019-04-05T07:03:41.094Z,85.45
2019-04-05T07:08:53.683Z,86.28
2019-04-05T07:13:53.774Z,85.82
2019-04-05T07:18:59.011Z,84.94
2019-04-05T07:24:04.342Z,84.34
2019-04-05T07:29:10.848Z,82.92
2019-04-05T07:34:16.611Z,82.69
2019-04-05T07:39:22.026Z,82.19
2019-04-05T07:44:27.289Z,81.96
2019-04-05T07:49:32.781Z,81.58
2019-04-05T07:54:38.104Z,81.73
2019-04-05T07:59:43.415Z,81.55
2019-04-05T08:04:49.182Z,81.31
2019-04-05T08:09:56.258Z,80.18
2019-04-05T08:15:02.220Z,79.76
2019-04-05T08:20:07.666Z,79.89
2019-04-05T08:25:13.264Z,79.23
2019-04-05T08:33:09.600Z,79.10
2019-04-05T08:38:15.011Z,78.97
2019-04-05T08:43:20.581Z,77.84
2019-04-05T08:48:25.882Z,76.91
2019-04-05T08:53:31.129Z,76.85
2019-04-05T08:58:36.342Z,75.84
2019-04-05T09:03:41.807Z,76.43
2019-04-05T09:08:47.110Z,76.03
2019-04-05T09:13:52.723Z,76.92
2019-04-05T09:18:57.986Z,76.41
2019-04-05T09:24:03.225Z,77.03
2019-04-05T09:29:09.408Z,74.77
2019-04-05T09:34:15.220Z,75.51
2019-04-05T09:39:20.884Z,74.16
2019-04-05T09:44:26.305Z,74.40
2019-04-05T09:49:37.074Z,73.29
2019-04-05T09:54:39.072Z,74.30
2019-04-05T09:59:44.309Z,73.62
2019-04-05T10:04:49.983Z,73.58
2019-04-05T10:09:55.297Z,72.90
2019-04-05T10:16:14.257Z,72.52
2019-04-05T10:21:19.554Z,74.28
2019-04-05T10:26:25.123Z,74.26
2019-04-05T10:31:30.800Z,74.22
2019-04-05T10:36:36.401Z,75.21
2019-04-05T10:41:42.031Z,74.20
2019-04-05T10:46:47.491Z,74.79
2019-04-05T10:51:52.973Z,74.29
2019-04-05T10:56:58.343Z,76.42
2019-04-05T11:02:03.813Z,76.84
2019-04-05T11:07:09.243Z,77.36
2019-04-05T11:12:14.673Z,76.16
2019-04-05T11:17:20.029Z,75.84
2019-04-05T11:22:25.475Z,75.89
2019-04-05T11:27:30.972Z,75.48
2019-04-05T11:32:36.686Z,74.75
2019-04-05T11:37:42.077Z,74.84
2019-04-05T11:42:48.814Z,74.72
2019-04-05T11:47:55.681Z,75.18
2019-04-05T11:53:03.092Z,74.41
2019-04-05T11:58:08.367Z,75.32
2019-04-05T12:03:14.039Z,73.96
2019-04-05T12:08:19.456Z,74.45
2019-04-05T12:13:24.712Z,74.04
2019-04-05T12:18:30.028Z,73.83
2019-04-05T12:23:35.370Z,74.53
2019-04-05T12:28:41.026Z,75.06
2019-04-05T12:33:47.041Z,73.39
2019-04-05T12:38:54.172Z,75.31
2019-04-05T12:44:00.674Z,75.62
2019-04-05T12:49:06.698Z,77.23
2019-04-05T12:54:12.040Z,76.43
2019-04-05T12:59:17.315Z,77.40
2019-04-05T13:04:22.891Z,76.42
2019-04-05T13:09:28.659Z,76.50
2019-04-05T13:14:34.065Z,76.18
2019-04-05T13:19:39.692Z,76.50
2019-04-05T13:24:45.369Z,76.40
2019-04-05T13:29:51.026Z,76.34
2019-04-05T13:34:56.500Z,76.98
2019-04-05T13:40:06.248Z,77.38
2019-04-05T13:45:11.579Z,77.03
2019-04-05T13:50:19.419Z,76.42
2019-04-05T13:55:24.191Z,76.61
2019-04-05T14:00:29.522Z,76.05
2019-04-05T14:05:35.315Z,75.87
2019-04-05T14:10:41.936Z,76.84
2019-04-05T14:15:47.178Z,76.26
2019-04-05T14:20:52.838Z,76.93
2019-04-05T14:25:59.913Z,75.84
2019-04-05T14:31:05.692Z,76.58
2019-04-05T14:36:11.093Z,76.63
2019-04-05T14:41:17.162Z,76.07
2019-04-05T14:46:22.451Z,76.62
2019-04-05T14:51:28.655Z,75.85
2019-04-05T14:56:36.557Z,76.98
2019-04-05T15:01:42.168Z,77.51
2019-04-05T15:06:48.645Z,77.31
2019-04-05T15:11:56.453Z,77.77
2019-04-05T15:17:02.864Z,77.64
2019-04-05T15:22:10.902Z,77.68
2019-04-05T15:27:15.293Z,78.17
2019-04-05T15:32:20.972Z,78.30
2019-04-05T15:37:26.542Z,79.02
2019-04-05T15:42:32.007Z,78.70
2019-04-05T15:47:39.394Z,79.01
2019-04-05T15:52:45.179Z,78.85
2019-04-05T15:57:50.683Z,78.81
2019-04-05T16:02:56.212Z,78.31
2019-04-05T16:08:01.766Z,78.99
2019-04-05T16:13:08.247Z,79.13
2019-04-05T16:18:14.607Z,79.39
2019-04-05T16:23:19.919Z,79.46
2019-04-05T16:28:25.266Z,79.49
2019-04-05T16:33:30.603Z,79.60
2019-04-05T16:38:36.365Z,79.31
2019-04-05T16:43:41.678Z,80.65
2019-04-05T16:48:47.040Z,80.47
2019-04-05T16:54:03.224Z,80.01
2019-04-05T16:59:08.979Z,80.55
2019-04-05T17:04:14.815Z,80.64
2019-04-05T17:09:20.704Z,81.20
2019-04-05T17:14:25.933Z,81.90
2019-04-05T17:19:31.640Z,81.38
2019-04-05T17:24:37.262Z,82.14
2019-04-05T17:29:42.668Z,81.80
2019-04-05T17:34:48.664Z,82.00
2019-04-05T17:39:54.585Z,82.98
2019-04-05T17:45:00.006Z,83.63
2019-04-05T17:50:05.838Z,84.37
2019-04-05T17:55:12.071Z,84.08
2019-04-05T18:00:21.910Z,84.97
2019-04-05T18:05:27.213Z,84.57
2019-04-05T18:10:32.691Z,84.79
2019-04-05T18:15:46.683Z,85.13
2019-04-05T18:20:45.810Z,85.54
2019-04-05T18:25:51.169Z,85.92
2019-04-05T18:30:56.569Z,85.82
2019-04-05T18:36:01.976Z,85.67
2019-04-05T18:41:07.309Z,85.89
2019-04-05T18:46:12.681Z,86.75
2019-04-05T18:51:18.298Z,87.28
2019-04-05T18:56:23.772Z,87.59
2019-04-05T19:01:29.079Z,86.96
2019-04-05T19:06:34.419Z,86.39
2019-04-05T19:11:39.771Z,86.74
2019-04-05T19:16:45.174Z,88.09
2019-04-05T19:21:52.194Z,88.02
2019-04-05T19:26:57.453Z,87.47
2019-04-05T19:52:34.271Z,87.87
2019-04-05T19:57:39.581Z,87.70
2019-04-05T20:02:44.901Z,88.67
2019-04-05T20:07:50.447Z,88.70
2019-04-05T20:12:55.826Z,88.71
2019-04-05T20:18:01.505Z,89.22
2019-04-05T20:23:07.389Z,88.60
2019-04-05T20:28:13.142Z,88.49
2019-04-05T20:33:18.561Z,88.82
2019-04-05T20:38:26.716Z,88.42
2019-04-05T20:43:32.218Z,88.74
2019-04-05T20:48:37.699Z,89.23
2019-04-05T20:53:44.450Z,89.02
2019-04-05T20:58:50.584Z,89.04
2019-04-05T21:03:56.892Z,88.71
2019-04-05T21:09:02.595Z,88.91
2019-04-05T21:14:10.545Z,89.47
2019-04-05T21:19:16.231Z,89.11
2019-04-05T21:24:21.969Z,88.93
2019-04-05T21:29:29.436Z,89.18
2019-04-05T21:34:35.129Z,88.52
2019-04-05T21:39:41.185Z,89.08
2019-04-05T21:44:46.617Z,89.66
2019-04-05T21:49:52.901Z,89.64
2019-04-05T21:54:58.890Z,89.75
2019-04-05T22:00:08.733Z,89.28
2019-04-05T22:05:15.889Z,89.48
2019-04-05T22:10:21.410Z,89.15
2019-04-05T22:15:26.836Z,88.82
2019-04-05T22:20:32.311Z,89.29
2019-04-05T22:25:37.663Z,89.30
2019-04-05T22:30:43.018Z,89.21
2019-04-05T22:35:48.686Z,89.44
2019-04-05T22:40:54.093Z,89.05
2019-04-05T22:45:59.741Z,89.25
2019-04-05T22:51:05.062Z,89.29
2019-04-05T22:56:10.326Z,89.15
2019-04-05T23:01:15.750Z,89.01
2019-04-05T23:06:21.465Z,89.29
2019-04-05T23:11:26.772Z,89.06
2019-04-05T23:16:32.293Z,89.29
2019-04-05T23:21:38.281Z,89.22
2019-04-05T23:26:43.640Z,89.45
2019-04-05T23:31:49.020Z,89.45
2019-04-05T23:36:54.584Z,89.33
2019-04-05T23:41:59.825Z,89.65
2019-04-05T23:47:05.168Z,89.37
2019-04-05T23:52:10.430Z,89.46
2019-04-05T23:57:16.083Z,89.56
